Time;durP1;ratioP1;P1;durP2;ratioP2;P2;SDS_P1;SDS_P2;PMS_P1;PMS_P2;Temp;Humidity;BMP_temperature;BMP_pressure;BME280_temperature;BME280_humidity;BME280_pressure;Samples;Min_cycle;Max_cycle;Signal;HPM_P1;HPM_P2
2022/01/23 00:01:06;;;;;;;9.93;4.35;;;-3.30;99.90;;;;;;6189931;23;20005;-87
2022/01/23 00:03:31;;;;;;;8.18;4.40;;;-3.40;99.90;;;;;;6190768;23;20001;-92
2022/01/23 00:05:58;;;;;;;9.35;4.50;;;-3.30;99.90;;;;;;6190253;23;20004;-92
2022/01/23 00:08:24;;;;;;;8.02;4.63;;;-3.30;99.90;;;;;;6189742;23;20067;-92
2022/01/23 00:10:52;;;;;;;7.53;3.80;;;-3.30;99.90;;;;;;6189163;23;20000;-92
2022/01/23 00:13:34;;;;;;;6.60;3.88;;;-3.30;99.90;;;;;;6189502;23;20091;-92
2022/01/23 00:18:44;;;;;;;8.13;4.65;;;-3.30;99.90;;;;;;6215917;23;20019;-93
2022/01/23 00:21:09;;;;;;;7.38;4.50;;;-3.30;99.90;;;;;;6189263;23;20012;-92
2022/01/23 00:31:37;;;;;;;6.90;4.20;;;-3.20;99.90;;;;;;6215833;23;20067;-92
2022/01/23 00:34:03;;;;;;;7.47;4.25;;;-3.20;99.90;;;;;;6189744;23;20443;-92
2022/01/23 00:36:29;;;;;;;8.50;4.68;;;-3.20;99.90;;;;;;6189590;23;20032;-94
2022/01/23 00:38:56;;;;;;;8.90;4.18;;;-3.20;99.90;;;;;;6189172;23;20008;-91
2022/01/23 00:41:22;;;;;;;8.40;4.68;;;-3.20;99.90;;;;;;6189110;23;20050;-92
2022/01/23 00:43:49;;;;;;;8.38;4.53;;;-3.10;99.90;;;;;;6189268;23;20009;-93
2022/01/23 00:49:35;;;;;;;8.48;5.00;;;-3.10;99.90;;;;;;6216064;23;20004;-93
2022/01/23 00:51:37;;;;;;;9.57;4.63;;;-3.10;99.90;;;;;;6189432;23;20015;-93
2022/01/23 00:54:06;;;;;;;7.30;4.60;;;-3.20;99.90;;;;;;6215786;23;20084;-91
2022/01/23 00:56:33;;;;;;;9.27;4.43;;;-3.10;99.90;;;;;;6215355;23;19992;-90
2022/01/23 00:58:59;;;;;;;8.30;4.53;;;-3.10;99.90;;;;;;6189047;23;20004;-90
2022/01/23 01:01:26;;;;;;;8.80;4.45;;;-3.20;99.90;;;;;;6188670;23;20134;-92
2022/01/23 01:03:52;;;;;;;8.90;4.70;;;-3.20;99.90;;;;;;6188848;23;20293;-90
2022/01/23 01:06:18;;;;;;;8.02;4.60;;;-3.20;99.90;;;;;;6215461;23;20511;-89
2022/01/23 01:08:46;;;;;;;7.80;4.40;;;-3.20;99.90;;;;;;6214306;23;20486;-88
2022/01/23 01:33:07;;;;;;;11.07;5.72;;;-3.30;99.90;;;;;;6227834;23;20005;-93
2022/01/23 01:35:33;;;;;;;13.38;5.95;;;-3.30;99.90;;;;;;6215131;23;20385;-92
2022/01/23 01:37:59;;;;;;;17.30;6.90;;;-3.30;99.90;;;;;;6191914;23;20366;-93
2022/01/23 01:40:26;;;;;;;12.65;5.75;;;-3.30;99.90;;;;;;6217835;23;20032;-92
2022/01/23 01:42:52;;;;;;;9.10;5.03;;;-3.40;99.90;;;;;;6191450;23;20275;-92
2022/01/23 01:45:23;;;;;;;9.55;4.50;;;-3.40;99.90;;;;;;6218035;23;20064;-93
2022/01/23 01:47:50;;;;;;;10.30;4.60;;;-3.50;99.90;;;;;;6191347;23;20143;-93
2022/01/23 01:50:17;;;;;;;7.95;4.38;;;-3.50;99.90;;;;;;6220083;23;20001;-95
2022/01/23 01:52:42;;;;;;;8.13;3.85;;;-3.50;99.90;;;;;;6192421;23;20331;-95
2022/01/23 01:55:12;;;;;;;7.55;4.45;;;-3.50;99.90;;;;;;6219907;23;20007;-95
2022/01/23 01:57:50;;;;;;;6.85;4.03;;;-3.50;99.90;;;;;;6192291;23;19997;-94
2022/01/23 02:10:47;;;;;;;8.25;4.88;;;-3.50;99.90;;;;;;6228004;23;20001;-93
2022/01/23 02:13:15;;;;;;;7.45;4.50;;;-3.40;99.90;;;;;;6218268;23;20075;-93
2022/01/23 02:51:27;;;;;;;8.73;4.68;;;-3.30;99.90;;;;;;6218291;23;20543;-92
2022/01/23 02:56:22;;;;;;;8.73;4.80;;;-3.30;99.90;;;;;;6219118;23;19997;-92
2022/01/23 02:58:59;;;;;;;7.53;4.15;;;-3.20;99.90;;;;;;6192409;23;20058;-93
2022/01/23 03:01:29;;;;;;;7.53;4.25;;;-3.20;99.90;;;;;;6219027;23;20059;-92
2022/01/23 03:04:03;;;;;;;7.32;4.57;;;-3.20;99.90;;;;;;6193828;23;20007;-94
2022/01/23 03:25:17;;;;;;;11.43;5.50;;;-3.20;99.90;;;;;;6222222;23;20060;-92
2022/01/23 03:30:27;;;;;;;10.35;6.13;;;-3.10;99.90;;;;;;6228870;23;20430;-94
2022/01/23 03:32:54;;;;;;;12.77;6.07;;;-3.20;99.90;;;;;;6192042;23;20012;-93
2022/01/23 03:35:22;;;;;;;9.43;5.75;;;-3.20;99.90;;;;;;6192827;23;19996;-92
2022/01/23 03:37:48;;;;;;;9.52;5.50;;;-3.20;99.90;;;;;;6221482;23;19997;-92
2022/01/23 03:40:15;;;;;;;10.40;6.03;;;-3.20;99.90;;;;;;6218512;23;20003;-90
2022/01/23 03:42:42;;;;;;;10.88;6.28;;;-3.20;99.90;;;;;;6192191;23;20012;-92
2022/01/23 03:50:47;;;;;;;11.02;6.25;;;-3.20;99.90;;;;;;6193343;23;20043;-93
2022/01/23 03:53:13;;;;;;;11.95;6.40;;;-3.20;99.90;;;;;;6205422;23;20000;-92
2022/01/23 03:55:40;;;;;;;12.73;6.40;;;-3.20;99.90;;;;;;6203796;23;20004;-92
2022/01/23 03:58:05;;;;;;;12.05;6.78;;;-3.30;99.90;;;;;;6231773;23;20024;-92
2022/01/23 04:00:32;;;;;;;12.45;6.90;;;-3.30;99.90;;;;;;6226474;23;20416;-92
2022/01/23 04:02:57;;;;;;;13.82;7.38;;;-3.30;99.90;;;;;;6192901;23;20009;-92
2022/01/23 04:05:23;;;;;;;15.50;7.55;;;-3.30;99.90;;;;;;6192229;23;20005;-92
2022/01/23 04:07:49;;;;;;;13.93;7.85;;;-3.30;99.90;;;;;;6221418;23;20001;-92
2022/01/23 04:10:17;;;;;;;13.00;7.78;;;-3.30;99.90;;;;;;6197512;23;20000;-92
2022/01/23 04:12:54;;;;;;;13.23;7.85;;;-3.30;99.90;;;;;;6219990;23;20016;-92
2022/01/23 05:01:07;;;;;;;16.55;8.77;;;-3.40;99.90;;;;;;6243340;23;20064;-92
2022/01/23 05:06:25;;;;;;;15.70;8.60;;;-3.50;99.90;;;;;;6218550;23;20012;-94
2022/01/23 05:08:51;;;;;;;14.55;8.48;;;-3.50;99.90;;;;;;6192171;23;20005;-94
2022/01/23 05:11:17;;;;;;;19.50;9.32;;;-3.40;99.90;;;;;;6191394;23;20461;-92
2022/01/23 05:13:45;;;;;;;19.08;9.10;;;-3.50;99.90;;;;;;6191440;23;20009;-93
2022/01/23 05:16:11;;;;;;;21.00;10.15;;;-3.40;99.90;;;;;;6218188;23;20004;-94
2022/01/23 05:18:38;;;;;;;17.63;9.40;;;-3.40;99.90;;;;;;6191387;23;20004;-94
2022/01/23 05:21:50;;;;;;;17.80;8.10;;;-3.40;99.90;;;;;;6218084;23;20031;-95
2022/01/23 05:23:54;;;;;;;15.25;8.05;;;-3.40;99.90;;;;;;6214151;23;20300;-93
2022/01/23 05:26:20;;;;;;;14.50;7.80;;;-3.30;99.90;;;;;;6192158;23;20040;-96
2022/01/23 05:28:46;;;;;;;16.70;8.68;;;-3.30;99.90;;;;;;6217238;23;20031;-93
2022/01/23 05:31:11;;;;;;;16.80;9.27;;;-3.30;99.90;;;;;;6190874;23;20486;-93
2022/01/23 05:33:37;;;;;;;26.55;12.32;;;-3.30;99.90;;;;;;6191104;23;20041;-93
2022/01/23 05:36:05;;;;;;;25.58;13.00;;;-3.30;99.90;;;;;;6217713;23;20414;-94
2022/01/23 05:38:30;;;;;;;26.17;11.90;;;-3.40;99.90;;;;;;6190928;23;20001;-94
2022/01/23 05:40:57;;;;;;;24.35;11.93;;;-3.30;99.90;;;;;;6217718;23;20012;-93
2022/01/23 05:43:24;;;;;;;22.73;10.85;;;-3.30;99.90;;;;;;6191350;23;20091;-93
2022/01/23 05:45:50;;;;;;;21.42;9.93;;;-3.30;99.90;;;;;;6190526;23;20000;-93
2022/01/23 05:48:17;;;;;;;20.35;10.50;;;-3.30;99.90;;;;;;6192763;23;20005;-92
2022/01/23 05:50:44;;;;;;;18.95;10.88;;;-3.30;99.90;;;;;;6192491;23;20012;-92
2022/01/23 05:53:10;;;;;;;19.77;10.90;;;-3.30;99.90;;;;;;6192914;23;20001;-93
2022/01/23 05:55:35;;;;;;;22.58;11.38;;;-3.30;99.90;;;;;;6218860;23;20020;-93
2022/01/23 05:58:01;;;;;;;19.30;10.15;;;-3.30;99.90;;;;;;6217793;23;20000;-92
2022/01/23 06:00:28;;;;;;;19.58;10.52;;;-3.30;99.90;;;;;;6216784;23;20090;-93
2022/01/23 06:02:54;;;;;;;21.98;11.45;;;-3.40;99.90;;;;;;6217649;23;20072;-92
2022/01/23 06:05:20;;;;;;;20.17;10.93;;;-3.40;99.90;;;;;;6191254;23;20007;-92
2022/01/23 06:07:47;;;;;;;23.38;11.45;;;-3.50;99.90;;;;;;6192193;23;20001;-93
2022/01/23 06:10:21;;;;;;;23.70;12.93;;;-3.60;99.90;;;;;;6195953;23;20010;-94
2022/01/23 06:12:47;;;;;;;21.50;10.95;;;-3.70;99.90;;;;;;6191633;23;20423;-91
2022/01/23 06:15:13;;;;;;;20.55;11.07;;;-3.70;99.90;;;;;;6190467;23;20011;-91
2022/01/23 06:17:38;;;;;;;21.92;11.55;;;-3.70;99.90;;;;;;6191055;23;20004;-91
2022/01/23 06:20:07;;;;;;;20.98;11.45;;;-3.80;99.90;;;;;;6190572;23;20004;-93
2022/01/23 06:22:33;;;;;;;18.10;9.63;;;-3.80;99.90;;;;;;6190020;23;20020;-91
2022/01/23 06:24:59;;;;;;;15.88;8.50;;;-3.80;99.90;;;;;;6218207;23;20482;-92
2022/01/23 06:27:27;;;;;;;18.63;8.90;;;-3.80;99.90;;;;;;6217452;23;20451;-93
2022/01/23 06:29:52;;;;;;;18.35;8.90;;;-3.80;99.90;;;;;;6191466;23;20023;-94
2022/01/23 06:32:18;;;;;;;15.85;7.90;;;-3.80;99.90;;;;;;6191164;23;20013;-95
2022/01/23 06:34:44;;;;;;;17.73;8.30;;;-3.80;99.90;;;;;;6192803;23;20024;-94
2022/01/23 06:37:10;;;;;;;18.52;8.93;;;-3.80;99.90;;;;;;6218045;23;19997;-94
2022/01/23 06:39:36;;;;;;;16.05;8.32;;;-3.80;99.90;;;;;;6190929;23;20007;-94
2022/01/23 06:42:02;;;;;;;14.45;7.47;;;-3.80;99.90;;;;;;6218094;23;20005;-94
2022/01/23 06:44:29;;;;;;;16.90;8.07;;;-3.70;99.90;;;;;;6194696;23;20012;-91
2022/01/23 06:46:56;;;;;;;14.63;7.35;;;-3.70;99.90;;;;;;6193734;23;20001;-93
2022/01/23 06:49:21;;;;;;;13.38;7.57;;;-3.60;99.90;;;;;;6194870;23;19997;-93
2022/01/23 06:51:49;;;;;;;14.15;7.68;;;-3.60;99.90;;;;;;6196337;23;20027;-93
2022/01/23 06:54:15;;;;;;;13.32;7.18;;;-3.50;99.90;;;;;;6219619;23;20001;-93
2022/01/23 06:56:41;;;;;;;14.98;8.20;;;-3.40;99.90;;;;;;6193163;23;20060;-92
2022/01/23 06:59:07;;;;;;;13.75;7.95;;;-3.30;99.90;;;;;;6219363;23;20000;-92
2022/01/23 07:01:33;;;;;;;13.93;8.20;;;-3.30;99.90;;;;;;6218249;23;20012;-94
2022/01/23 07:03:58;;;;;;;18.85;8.45;;;-3.20;99.90;;;;;;6192052;23;20001;-89
2022/01/23 07:06:24;;;;;;;14.43;8.05;;;-3.20;99.90;;;;;;6190602;23;20086;-91
2022/01/23 07:08:50;;;;;;;15.23;8.18;;;-3.10;99.90;;;;;;6217450;23;20428;-92
2022/01/23 07:11:16;;;;;;;15.93;9.43;;;-3.10;99.90;;;;;;6219287;23;20013;-92
2022/01/23 07:13:41;;;;;;;18.50;9.90;;;-3.00;99.90;;;;;;6221743;23;20001;-93
2022/01/23 07:16:07;;;;;;;17.83;9.77;;;-3.00;99.90;;;;;;6226841;23;19997;-91
2022/01/23 07:18:33;;;;;;;16.98;9.45;;;-2.90;99.90;;;;;;6203426;23;20068;-93
2022/01/23 07:20:59;;;;;;;16.88;9.35;;;-2.90;99.90;;;;;;6209481;23;19991;-94
2022/01/23 07:23:25;;;;;;;18.73;9.23;;;-2.80;99.90;;;;;;6222796;23;20035;-96
2022/01/23 07:25:51;;;;;;;15.25;8.52;;;-2.80;99.90;;;;;;6220714;23;20011;-94
2022/01/23 07:28:20;;;;;;;15.35;8.35;;;-2.70;99.90;;;;;;6193701;23;20463;-94
2022/01/23 07:30:51;;;;;;;17.20;9.10;;;-2.60;99.90;;;;;;6220587;23;19997;-94
2022/01/23 07:33:17;;;;;;;16.38;8.75;;;-2.60;99.90;;;;;;6220323;23;20067;-92
2022/01/23 07:35:43;;;;;;;16.83;8.45;;;-2.50;99.90;;;;;;6220110;23;20419;-93
2022/01/23 07:38:11;;;;;;;13.45;7.18;;;-2.40;99.90;;;;;;6193652;23;20131;-95
2022/01/23 07:40:37;;;;;;;13.65;7.82;;;-2.20;99.90;;;;;;6192329;23;19993;-92
2022/01/23 07:43:03;;;;;;;13.90;7.47;;;-2.00;99.90;;;;;;6191871;23;20497;-92
2022/01/23 07:45:28;;;;;;;15.65;7.93;;;-1.80;99.90;;;;;;6193271;23;20004;-92
2022/01/23 07:47:54;;;;;;;12.68;7.20;;;-1.60;99.90;;;;;;6191671;23;20443;-93
2022/01/23 07:50:20;;;;;;;12.60;7.70;;;-1.30;99.90;;;;;;6193841;23;20424;-94
2022/01/23 07:52:45;;;;;;;13.95;7.70;;;-1.00;99.90;;;;;;6221116;23;20024;-93
2022/01/23 07:55:14;;;;;;;11.65;7.13;;;-0.70;99.90;;;;;;6194056;23;20011;-92
2022/01/23 07:57:42;;;;;;;13.18;7.07;;;-0.60;99.90;;;;;;6192720;23;20001;-91
2022/01/23 08:00:10;;;;;;;13.30;7.32;;;-0.40;99.90;;;;;;6167270;23;20000;-92
2022/01/23 08:02:36;;;;;;;13.50;7.90;;;-0.30;99.90;;;;;;6198155;23;20091;-93
2022/01/23 08:05:02;;;;;;;13.27;7.82;;;-0.10;99.90;;;;;;6193875;23;20416;-93
2022/01/23 08:09:57;;;;;;;16.25;10.55;;;0.80;99.90;;;;;;6219928;23;20000;-92
2022/01/23 08:12:24;;;;;;;17.48;10.35;;;1.00;94.90;;;;;;6218681;23;20075;-92
2022/01/23 08:14:50;;;;;;;16.60;10.20;;;1.10;94.00;;;;;;6191380;23;20008;-90
2022/01/23 08:17:16;;;;;;;16.02;9.90;;;1.40;93.80;;;;;;6218143;23;20055;-90
2022/01/23 08:19:42;;;;;;;14.50;9.27;;;1.70;92.50;;;;;;6191743;23;20087;-90
2022/01/23 08:25:11;;;;;;;14.70;9.63;;;1.60;82.90;;;;;;6204750;23;20005;-90
2022/01/23 08:27:36;;;;;;;17.63;9.63;;;1.30;82.50;;;;;;6194963;23;20005;-89
2022/01/23 08:30:03;;;;;;;14.65;9.18;;;1.00;82.30;;;;;;6200061;23;20012;-92
2022/01/23 08:32:28;;;;;;;15.65;10.25;;;0.80;83.40;;;;;;6195428;23;20340;-91
2022/01/23 08:34:54;;;;;;;15.18;9.90;;;0.60;83.60;;;;;;6193250;23;20001;-91
2022/01/23 08:37:20;;;;;;;15.60;10.15;;;0.60;87.10;;;;;;6218747;23;20430;-94
2022/01/23 08:39:46;;;;;;;17.10;10.50;;;0.90;88.80;;;;;;6198033;23;20064;-89
2022/01/23 08:42:18;;;;;;;16.60;9.77;;;1.30;86.50;;;;;;6244022;23;20196;-92
2022/01/23 08:44:50;;;;;;;14.80;9.48;;;1.60;82.50;;;;;;6217757;23;19993;-91
2022/01/23 08:47:16;;;;;;;16.02;9.30;;;1.90;83.10;;;;;;6242021;23;20001;-92
2022/01/23 08:49:47;;;;;;;14.63;8.90;;;2.10;80.60;;;;;;6201796;23;20008;-91
2022/01/23 08:52:19;;;;;;;16.27;9.32;;;2.40;82.70;;;;;;6221616;23;20017;-92
2022/01/23 08:54:49;;;;;;;16.42;9.45;;;2.70;79.70;;;;;;6197026;23;20004;-90
2022/01/23 08:57:16;;;;;;;15.00;8.93;;;3.00;78.40;;;;;;6194553;23;20001;-94
2022/01/23 08:59:42;;;;;;;15.60;10.10;;;3.20;78.20;;;;;;6222093;23;19997;-92
2022/01/23 09:02:09;;;;;;;14.55;9.48;;;3.50;76.60;;;;;;6223618;23;20025;-92
2022/01/23 09:04:47;;;;;;;18.00;10.40;;;3.60;73.80;;;;;;6222267;23;20049;-91
2022/01/23 09:07:13;;;;;;;16.10;10.75;;;3.90;74.00;;;;;;6219382;23;20031;-92
2022/01/23 09:09:40;;;;;;;16.90;10.65;;;4.30;74.00;;;;;;6195619;23;20331;-95
2022/01/23 09:12:21;;;;;;;15.00;10.02;;;4.90;74.00;;;;;;6222673;23;20005;-91
2022/01/23 09:14:47;;;;;;;14.40;9.68;;;4.90;68.00;;;;;;6191867;23;20005;-93
2022/01/23 09:17:12;;;;;;;15.07;9.10;;;4.90;67.70;;;;;;6202371;23;20012;-92
2022/01/23 09:19:39;;;;;;;10.82;7.10;;;4.80;66.10;;;;;;6230855;23;20000;-94
2022/01/23 09:22:05;;;;;;;11.38;6.90;;;4.50;66.00;;;;;;6229194;23;20001;-93
2022/01/23 09:24:31;;;;;;;12.63;6.90;;;4.20;66.20;;;;;;6197725;23;20080;-89
2022/01/23 09:27:03;;;;;;;10.68;6.57;;;3.90;66.20;;;;;;6191429;23;20008;-92
2022/01/23 09:29:39;;;;;;;8.82;6.28;;;3.70;67.30;;;;;;6219579;23;20013;-91
2022/01/23 09:32:15;;;;;;;10.65;6.90;;;3.90;68.10;;;;;;6192817;23;20108;-93
2022/01/23 09:34:43;;;;;;;11.90;7.30;;;4.10;66.10;;;;;;6193429;23;20003;-93
2022/01/23 09:37:11;;;;;;;13.82;8.70;;;4.60;68.00;;;;;;6192836;23;20017;-91
2022/01/23 09:39:39;;;;;;;10.73;6.47;;;5.40;67.50;;;;;;6192496;23;20000;-92
2022/01/23 09:42:27;;;;;;;10.65;6.18;;;6.10;66.50;;;;;;6192783;23;20004;-91
2022/01/23 09:45:09;;;;;;;7.63;5.00;;;6.80;64.30;;;;;;6192412;23;20005;-91
2022/01/23 09:47:36;;;;;;;8.38;5.50;;;7.10;58.40;;;;;;6191189;23;20015;-84
2022/01/23 09:50:05;;;;;;;12.45;7.55;;;7.40;61.30;;;;;;6215559;23;20004;-85
2022/01/23 09:52:34;;;;;;;66.38;37.47;;;7.70;61.00;;;;;;6188336;23;20005;-89
2022/01/23 09:55:07;;;;;;;26.02;15.20;;;8.00;59.90;;;;;;6190037;23;20001;-87
2022/01/23 09:57:36;;;;;;;13.80;8.80;;;8.30;58.90;;;;;;6190629;23;20039;-87
2022/01/23 10:00:06;;;;;;;10.23;6.50;;;8.50;58.70;;;;;;6191304;23;20001;-89
2022/01/23 10:02:31;;;;;;;7.87;5.70;;;8.80;57.50;;;;;;6190083;23;20009;-88
2022/01/23 10:04:58;;;;;;;7.97;5.30;;;8.90;56.60;;;;;;6219810;23;20467;-93
2022/01/23 10:07:25;;;;;;;7.65;5.22;;;9.10;56.60;;;;;;6189229;23;20005;-87
2022/01/23 10:10:03;;;;;;;8.32;5.32;;;9.40;55.70;;;;;;6189491;23;20416;-89
2022/01/23 10:12:29;;;;;;;7.07;4.88;;;9.60;55.20;;;;;;6216169;23;20150;-93
2022/01/23 10:14:56;;;;;;;6.75;5.32;;;9.50;54.20;;;;;;6189468;23;20011;-90
2022/01/23 10:17:21;;;;;;;9.55;5.70;;;9.30;53.70;;;;;;6216650;23;20465;-88
2022/01/23 10:19:48;;;;;;;7.78;5.90;;;8.80;53.10;;;;;;6217544;23;20025;-87
2022/01/23 10:22:15;;;;;;;8.00;5.13;;;8.50;54.00;;;;;;6189596;23;20008;-88
2022/01/23 10:24:41;;;;;;;6.88;4.97;;;8.00;53.80;;;;;;6189867;23;20091;-88
2022/01/23 10:27:07;;;;;;;6.68;4.60;;;7.50;54.50;;;;;;6215864;23;20035;-88
2022/01/23 10:29:37;;;;;;;6.45;4.65;;;7.30;55.20;;;;;;6189748;23;20017;-87
2022/01/23 10:32:04;;;;;;;7.57;5.18;;;7.10;56.10;;;;;;6190197;23;20016;-87
2022/01/23 10:34:43;;;;;;;7.22;5.28;;;6.90;55.10;;;;;;6216120;23;20436;-89
2022/01/23 10:37:09;;;;;;;8.57;5.55;;;6.30;54.60;;;;;;6189423;23;20005;-84
2022/01/23 10:39:46;;;;;;;9.73;5.90;;;5.70;56.60;;;;;;6189037;23;20035;-83
2022/01/23 10:50:44;;;;;;;9.23;6.10;;;5.90;59.30;;;;;;6224900;23;20008;-86
2022/01/23 10:53:10;;;;;;;9.63;6.18;;;6.40;58.40;;;;;;6214720;23;20019;-85
2022/01/23 10:55:36;;;;;;;8.00;5.63;;;7.00;57.20;;;;;;6217730;23;20001;-89
2022/01/23 10:58:06;;;;;;;8.90;5.93;;;7.20;56.00;;;;;;6186087;23;20028;-86
2022/01/23 11:00:36;;;;;;;8.48;5.32;;;7.10;55.80;;;;;;6189180;23;20000;-88
2022/01/23 11:03:15;;;;;;;7.50;5.18;;;6.80;55.40;;;;;;6188858;23;20004;-87
2022/01/23 11:05:41;;;;;;;8.20;5.28;;;6.20;55.90;;;;;;6188846;23;20012;-87
2022/01/23 11:08:26;;;;;;;8.85;5.50;;;5.60;56.60;;;;;;6189124;23;20001;-84
2022/01/23 11:11:06;;;;;;;10.63;5.90;;;5.00;57.40;;;;;;6188522;23;20463;-86
2022/01/23 11:19:24;;;;;;;9.98;6.03;;;3.20;61.30;;;;;;6214990;23;20011;-86
2022/01/23 11:21:54;;;;;;;27.58;16.05;;;2.80;62.00;;;;;;6215081;23;20001;-87
2022/01/23 11:24:22;;;;;;;84.75;49.95;;;2.40;63.20;;;;;;6214519;23;20004;-88
2022/01/23 11:26:58;;;;;;;29.60;15.82;;;2.10;64.20;;;;;;6214383;23;19997;-87
2022/01/23 11:29:24;;;;;;;17.95;10.60;;;2.00;65.00;;;;;;6213203;23;20028;-88
2022/01/23 11:31:50;;;;;;;15.15;8.82;;;2.00;65.70;;;;;;6187097;23;20044;-87
2022/01/23 11:34:20;;;;;;;13.57;7.78;;;1.80;66.10;;;;;;6190386;23;20004;-91
2022/01/23 11:36:46;;;;;;;12.45;7.13;;;1.70;66.20;;;;;;6198226;23;20001;-91
2022/01/23 11:39:28;;;;;;;11.45;6.50;;;1.60;66.90;;;;;;6218642;23;20004;-92
2022/01/23 11:56:28;;;;;;;12.13;6.95;;;0.90;69.80;;;;;;6214603;23;20681;-88
2022/01/23 11:59:16;;;;;;;10.57;6.63;;;0.80;70.80;;;;;;6214815;23;20008;-85
2022/01/23 12:01:48;;;;;;;8.75;5.93;;;0.70;71.40;;;;;;6187754;23;20354;-89
2022/01/23 12:04:20;;;;;;;9.90;5.40;;;0.70;70.80;;;;;;6187977;23;20437;-86
2022/01/23 12:07:19;;;;;;;11.20;6.32;;;0.60;70.90;;;;;;6213182;23;20000;-82
2022/01/23 12:10:22;;;;;;;8.30;5.32;;;0.60;72.40;;;;;;6214176;23;20067;-80
2022/01/23 12:12:51;;;;;;;10.32;6.05;;;0.50;71.50;;;;;;6214625;23;20012;-80
2022/01/23 12:18:21;;;;;;;12.25;7.10;;;0.40;72.50;;;;;;6213988;23;20386;-82
2022/01/23 12:20:53;;;;;;;11.95;6.97;;;0.40;74.00;;;;;;6210416;23;19997;-81
2022/01/23 12:23:19;;;;;;;11.18;6.53;;;0.30;73.40;;;;;;6210063;23;20001;-83
2022/01/23 12:25:50;;;;;;;12.57;7.28;;;0.30;73.90;;;;;;6212276;23;20015;-81
2022/01/23 12:28:28;;;;;;;14.13;8.10;;;0.20;74.10;;;;;;6211676;23;20420;-86
2022/01/23 12:31:16;;;;;;;12.13;7.70;;;0.20;74.40;;;;;;6212224;23;20015;-85
2022/01/23 12:33:46;;;;;;;13.50;8.07;;;0.20;74.80;;;;;;6213346;23;20454;-85
2022/01/23 12:36:14;;;;;;;13.52;8.20;;;0.10;74.90;;;;;;6206018;23;20000;-85
2022/01/23 12:38:47;;;;;;;11.90;7.82;;;0.10;74.70;;;;;;6189199;23;20005;-84
2022/01/23 12:41:27;;;;;;;13.13;8.15;;;0.10;75.90;;;;;;6193193;23;20091;-85
2022/01/23 12:44:04;;;;;;;15.63;8.82;;;0.00;75.90;;;;;;6189663;23;20125;-84
2022/01/23 12:46:39;;;;;;;14.82;9.15;;;0.00;76.70;;;;;;6189840;23;20001;-86
2022/01/23 12:49:18;;;;;;;15.77;8.52;;;-0.10;77.00;;;;;;6189943;23;20457;-88
2022/01/23 13:09:36;;;;;;;18.02;10.15;;;-0.30;79.60;;;;;;6071644;23;20010;-86
2022/01/23 13:31:42;;;;;;;36.33;18.88;;;-0.90;86.80;;;;;;6219240;23;20008;-88
2022/01/23 13:34:21;;;;;;;28.20;15.80;;;-0.80;87.30;;;;;;6216896;23;20000;-90
2022/01/23 13:37:16;;;;;;;24.55;13.63;;;-0.70;84.70;;;;;;6216426;23;20420;-91
2022/01/23 13:39:55;;;;;;;25.45;14.00;;;-0.60;82.60;;;;;;6169273;23;20011;-88
2022/01/23 13:48:24;;;;;;;22.45;13.35;;;-0.80;83.00;;;;;;6214129;23;20104;-89
2022/01/23 13:59:49;;;;;;;30.50;15.82;;;-1.10;86.50;;;;;;6214374;23;20063;-87
2022/01/23 14:02:21;;;;;;;27.90;15.82;;;-1.00;87.20;;;;;;6188051;23;20005;-87
2022/01/23 14:05:08;;;;;;;25.88;13.93;;;-0.90;86.90;;;;;;6187256;23;20012;-90
2022/01/23 14:07:36;;;;;;;26.70;14.20;;;-0.80;86.70;;;;;;6188333;23;20004;-90
2022/01/23 14:10:18;;;;;;;24.67;13.65;;;-0.80;85.90;;;;;;6187080;23;20004;-90
2022/01/23 14:12:45;;;;;;;23.95;12.80;;;-0.80;86.30;;;;;;6213878;23;20009;-91
2022/01/23 14:15:17;;;;;;;23.63;13.45;;;-0.70;85.80;;;;;;6213929;23;20083;-89
2022/01/23 14:18:17;;;;;;;20.27;11.88;;;-0.80;85.60;;;;;;6187838;23;20530;-89
2022/01/23 14:21:05;;;;;;;20.90;10.80;;;-0.70;86.10;;;;;;6162389;23;20638;-90
2022/01/23 14:23:34;;;;;;;18.50;9.95;;;-0.80;85.60;;;;;;6186957;23;20028;-89
2022/01/23 14:26:04;;;;;;;16.42;9.68;;;-0.80;85.20;;;;;;6186043;23;20012;-91
2022/01/23 14:28:38;;;;;;;20.17;11.45;;;-0.80;85.40;;;;;;6213622;23;20068;-89
2022/01/23 14:31:16;;;;;;;17.80;9.98;;;-0.80;85.80;;;;;;6214959;23;20474;-90
2022/01/23 14:33:42;;;;;;;22.02;11.82;;;-0.80;85.10;;;;;;6188797;23;20036;-89
2022/01/23 14:36:26;;;;;;;18.08;10.65;;;-0.90;86.20;;;;;;6189873;23;20323;-89
2022/01/23 14:38:58;;;;;;;18.73;10.98;;;-0.90;86.20;;;;;;6216136;23;20050;-89
2022/01/23 14:41:26;;;;;;;21.13;11.60;;;-0.90;86.00;;;;;;6188593;23;20462;-88
2022/01/23 14:43:53;;;;;;;23.52;12.40;;;-0.90;86.40;;;;;;6188300;23;20416;-89
2022/01/23 14:46:22;;;;;;;22.05;12.43;;;-1.00;87.40;;;;;;6188430;23;20004;-89
2022/01/23 14:48:49;;;;;;;21.60;11.52;;;-1.00;87.40;;;;;;6189115;23;20005;-89
2022/01/23 14:51:22;;;;;;;25.30;12.32;;;-0.90;86.40;;;;;;6164104;23;20013;-88
2022/01/23 14:53:50;;;;;;;23.63;13.25;;;-0.90;87.20;;;;;;6190101;23;20031;-88
2022/01/23 14:56:16;;;;;;;22.58;11.98;;;-0.90;87.80;;;;;;6168407;23;20036;-88
2022/01/23 14:58:43;;;;;;;17.63;10.68;;;-0.90;87.30;;;;;;6198082;23;20005;-91
2022/01/23 15:01:15;;;;;;;18.67;11.23;;;-0.90;86.80;;;;;;6216630;23;20031;-91
2022/01/23 15:03:52;;;;;;;20.95;11.13;;;-0.90;86.40;;;;;;6190091;23;20011;-90
2022/01/23 15:06:22;;;;;;;19.38;10.80;;;-0.90;86.40;;;;;;6189408;23;20490;-90
2022/01/23 15:08:48;;;;;;;20.50;11.13;;;-0.80;86.50;;;;;;6189606;23;20035;-90
2022/01/23 15:11:14;;;;;;;19.15;10.48;;;-0.80;86.20;;;;;;6188562;23;20364;-88
2022/01/23 15:13:40;;;;;;;18.65;11.13;;;-0.80;85.50;;;;;;6215105;23;20004;-87
2022/01/23 15:16:05;;;;;;;24.50;13.88;;;-0.80;85.30;;;;;;6188093;23;20004;-87
2022/01/23 15:18:32;;;;;;;24.33;12.50;;;-0.80;86.00;;;;;;6188033;23;20011;-87
2022/01/23 15:20:58;;;;;;;24.58;13.13;;;-0.90;85.80;;;;;;6216524;23;19997;-87
2022/01/23 15:23:23;;;;;;;24.10;12.52;;;-1.00;86.00;;;;;;6216735;23;20004;-88
2022/01/23 15:25:49;;;;;;;28.60;14.88;;;-1.00;86.50;;;;;;6216330;23;20005;-91
2022/01/23 15:28:15;;;;;;;28.60;15.35;;;-1.10;87.10;;;;;;6189699;23;20016;-87
2022/01/23 15:30:41;;;;;;;30.30;15.43;;;-1.20;88.40;;;;;;6188539;23;20040;-88
2022/01/23 15:33:08;;;;;;;27.55;14.93;;;-1.20;88.80;;;;;;6188813;23;20005;-91
2022/01/23 15:35:36;;;;;;;27.42;14.75;;;-1.20;88.50;;;;;;6189692;23;20043;-86
2022/01/23 15:38:03;;;;;;;26.80;13.85;;;-1.30;88.90;;;;;;6214385;23;20500;-87
2022/01/23 15:40:29;;;;;;;24.52;13.00;;;-1.30;88.80;;;;;;6213831;23;19999;-88
2022/01/23 15:42:55;;;;;;;32.20;16.20;;;-1.30;88.40;;;;;;6187307;23;20083;-88
2022/01/23 15:45:23;;;;;;;32.47;15.68;;;-1.40;89.10;;;;;;6214600;23;20004;-88
2022/01/23 15:47:49;;;;;;;24.25;12.98;;;-1.50;89.50;;;;;;6187687;23;20001;-87
2022/01/23 15:50:19;;;;;;;23.88;12.02;;;-1.50;89.20;;;;;;6186943;23;20012;-90
2022/01/23 15:52:45;;;;;;;25.73;13.23;;;-1.40;89.10;;;;;;6192021;23;20095;-86
2022/01/23 15:55:12;;;;;;;25.20;13.18;;;-1.50;89.40;;;;;;6187853;23;19997;-90
2022/01/23 15:57:38;;;;;;;26.25;12.77;;;-1.50;89.80;;;;;;6185511;23;20007;-87
2022/01/23 16:00:06;;;;;;;23.58;12.82;;;-1.50;89.30;;;;;;6213621;23;19993;-89
2022/01/23 16:02:32;;;;;;;23.85;12.35;;;-1.50;89.60;;;;;;6186365;23;20048;-91
2022/01/23 16:05:01;;;;;;;28.70;14.98;;;-1.40;89.20;;;;;;6188212;23;20001;-93
2022/01/23 16:07:30;;;;;;;32.35;15.73;;;-1.40;90.00;;;;;;6214907;23;19996;-88
2022/01/23 16:09:56;;;;;;;32.60;16.98;;;-1.50;90.10;;;;;;6214511;23;20095;-91
2022/01/23 16:12:21;;;;;;;35.45;17.95;;;-1.50;90.10;;;;;;6213658;23;20459;-84
2022/01/23 16:14:47;;;;;;;52.58;28.10;;;-1.60;90.40;;;;;;6184780;23;20092;-84
2022/01/23 16:17:21;;;;;;;124.10;64.68;;;-1.60;90.80;;;;;;6213147;23;20453;-86
2022/01/23 16:19:47;;;;;;;67.03;34.55;;;-1.60;90.60;;;;;;6186576;23;20001;-84
2022/01/23 16:22:13;;;;;;;107.57;51.22;;;-1.60;90.80;;;;;;6212188;23;20355;-87
2022/01/23 16:24:38;;;;;;;52.75;26.73;;;-1.70;90.90;;;;;;6183969;23;20083;-85
2022/01/23 16:27:04;;;;;;;43.28;21.17;;;-1.80;91.30;;;;;;6181601;23;20006;-86
2022/01/23 16:29:31;;;;;;;35.08;17.85;;;-1.80;91.00;;;;;;6208865;23;20021;-86
2022/01/23 16:31:59;;;;;;;32.95;16.73;;;-1.80;90.90;;;;;;6209002;23;20506;-83
2022/01/23 16:34:29;;;;;;;28.75;14.55;;;-1.80;91.20;;;;;;6181595;23;20072;-82
2022/01/23 16:36:56;;;;;;;25.02;13.73;;;-1.90;91.30;;;;;;6181447;23;20315;-84
2022/01/23 16:39:24;;;;;;;28.92;14.75;;;-1.90;91.30;;;;;;6182352;23;20005;-87
2022/01/23 16:41:51;;;;;;;31.20;13.55;;;-2.00;91.90;;;;;;6208464;23;20443;-85
2022/01/23 16:44:21;;;;;;;24.02;13.07;;;-2.10;91.70;;;;;;6181022;23;20004;-85
2022/01/23 16:46:48;;;;;;;27.23;13.23;;;-2.10;91.20;;;;;;6181663;23;19997;-86
2022/01/23 16:49:17;;;;;;;32.97;15.25;;;-2.10;91.70;;;;;;6208590;23;20007;-86
2022/01/23 16:51:44;;;;;;;25.15;12.88;;;-2.20;92.20;;;;;;6181395;23;20063;-83
2022/01/23 16:54:12;;;;;;;23.77;11.65;;;-2.20;92.00;;;;;;6181568;23;20000;-84
2022/01/23 16:56:40;;;;;;;25.75;12.85;;;-2.20;91.90;;;;;;6209110;23;20610;-86